createdAt,value
2022-12-19T00:00:38.044Z,29.95
2022-12-19T00:03:07.397Z,38.55
2022-12-19T00:06:13.831Z,34.53
2022-12-19T00:08:51.595Z,33.97
2022-12-19T00:11:37.149Z,41.83
2022-12-19T00:14:06.639Z,35.47
2022-12-19T00:16:34.674Z,32.63
2022-12-19T00:19:04.499Z,32.20
2022-12-19T00:21:38.099Z,29.88
2022-12-19T00:24:20.424Z,34.38
2022-12-19T00:26:52.666Z,31.40
2022-12-19T00:29:20.875Z,38.53
2022-12-19T00:31:49.112Z,39.13
2022-12-19T00:34:19.194Z,35.78
2022-12-19T00:36:46.867Z,34.17
2022-12-19T00:39:16.202Z,35.45
2022-12-19T00:41:43.806Z,32.20
2022-12-19T00:44:13.828Z,40.17
2022-12-19T00:46:41.699Z,34.22
2022-12-19T00:49:09.230Z,31.13
2022-12-19T00:51:38.026Z,29.05
2022-12-19T00:54:07.306Z,32.72
2022-12-19T00:56:38.382Z,33.70
2022-12-19T00:59:06.353Z,34.13
2022-12-19T01:01:42.328Z,37.72
2022-12-19T01:04:30.053Z,31.40
2022-12-19T01:07:02.284Z,30.05
2022-12-19T01:09:30.559Z,37.70
2022-12-19T01:12:16.899Z,29.75
2022-12-19T01:14:44.485Z,26.67
2022-12-19T01:17:12.171Z,29.15
2022-12-19T01:19:43.934Z,32.83
2022-12-19T01:22:11.983Z,34.38
2022-12-19T01:24:39.899Z,34.45
2022-12-19T01:27:08.959Z,34.60
2022-12-19T01:29:37.630Z,35.10
2022-12-19T01:32:20.872Z,32.42
2022-12-19T01:34:48.412Z,36.33
2022-12-19T01:37:19.034Z,38.60
2022-12-19T01:39:46.567Z,34.00
2022-12-19T01:42:23.663Z,35.97
2022-12-19T01:45:28.920Z,38.92
2022-12-19T01:48:14.441Z,27.17
2022-12-19T01:50:56.022Z,34.40
2022-12-19T01:53:30.558Z,40.25
2022-12-19T01:55:58.235Z,33.25
2022-12-19T01:58:27.197Z,37.55
2022-12-19T02:00:54.860Z,34.38
2022-12-19T02:03:26.039Z,39.17
2022-12-19T02:05:54.214Z,33.25
2022-12-19T02:08:22.859Z,30.25
2022-12-19T02:10:50.917Z,33.47
2022-12-19T02:13:18.977Z,37.85
2022-12-19T02:15:51.667Z,37.75
2022-12-19T02:18:28.954Z,33.63
2022-12-19T02:21:24.444Z,38.50
2022-12-19T02:24:51.707Z,36.22
2022-12-19T02:28:00.578Z,31.40
2022-12-19T02:30:54.180Z,33.28
2022-12-19T02:33:27.244Z,34.67
2022-12-19T02:35:57.287Z,33.45
2022-12-19T02:38:29.525Z,33.38
2022-12-19T02:41:02.799Z,31.90
2022-12-19T02:43:32.222Z,37.97
2022-12-19T02:46:01.941Z,34.00
2022-12-19T02:48:30.497Z,33.35
2022-12-19T02:50:58.218Z,36.47
2022-12-19T02:53:25.747Z,34.38
2022-12-19T02:56:21.382Z,37.70
2022-12-19T02:58:54.324Z,34.70
2022-12-19T03:01:34.651Z,36.17
2022-12-19T03:04:09.608Z,34.55
2022-12-19T03:06:42.379Z,31.02
2022-12-19T03:09:18.139Z,36.03
2022-12-19T03:11:47.531Z,32.20
2022-12-19T03:14:17.524Z,35.38
2022-12-19T03:16:46.510Z,32.15
2022-12-19T03:19:15.396Z,31.90
2022-12-19T03:21:45.251Z,36.03
2022-12-19T03:24:14.035Z,31.70
2022-12-19T03:26:46.155Z,37.58
2022-12-19T03:29:16.672Z,32.92
2022-12-19T03:31:47.688Z,35.95
2022-12-19T03:34:18.269Z,34.20
2022-12-19T03:36:49.218Z,32.63
2022-12-19T03:39:17.841Z,36.15
2022-12-19T03:42:03.312Z,31.65
2022-12-19T03:44:33.606Z,33.28
2022-12-19T03:47:10.035Z,36.17
2022-12-19T03:49:38.586Z,32.53
2022-12-19T03:52:12.827Z,30.08
2022-12-19T03:54:41.989Z,30.30
2022-12-19T03:57:11.519Z,35.95
2022-12-19T03:59:42.023Z,35.40
2022-12-19T04:02:11.358Z,31.63
2022-12-19T04:04:41.393Z,37.53
2022-12-19T04:07:09.962Z,34.40
2022-12-19T04:09:38.538Z,32.85
2022-12-19T04:12:09.984Z,34.00
2022-12-19T04:14:38.872Z,35.50
2022-12-19T04:17:13.484Z,32.75
2022-12-19T04:19:44.855Z,34.60
2022-12-19T04:22:15.739Z,33.80
2022-12-19T04:24:44.451Z,34.95
2022-12-19T04:27:13.834Z,38.00
2022-12-19T04:29:42.131Z,36.60
2022-12-19T04:32:09.968Z,30.13
2022-12-19T04:34:42.675Z,35.67
2022-12-19T04:37:11.279Z,38.15
2022-12-19T04:39:38.875Z,38.20
2022-12-19T04:42:06.538Z,36.35
2022-12-19T04:44:34.132Z,35.92
2022-12-19T04:47:01.797Z,34.50
2022-12-19T04:49:29.458Z,43.20
2022-12-19T04:51:58.511Z,34.75
2022-12-19T04:54:26.459Z,36.38
2022-12-19T04:56:54.934Z,33.00
2022-12-19T04:59:22.540Z,39.35
2022-12-19T05:01:50.153Z,33.03
2022-12-19T05:04:17.883Z,41.80
2022-12-19T05:06:45.595Z,36.53
2022-12-19T05:09:14.571Z,37.75
2022-12-19T05:11:42.229Z,37.17
2022-12-19T05:14:10.173Z,44.83
2022-12-19T05:16:37.825Z,34.38
2022-12-19T05:19:05.521Z,40.72
2022-12-19T05:21:33.484Z,44.60
2022-12-19T05:24:01.270Z,38.60
2022-12-19T05:26:30.570Z,34.05
2022-12-19T05:29:00.577Z,33.80
2022-12-19T05:31:28.729Z,39.35
2022-12-19T05:33:57.157Z,37.03
2022-12-19T05:36:30.685Z,38.65
2022-12-19T05:39:00.456Z,42.90
2022-12-19T05:41:28.217Z,45.95
2022-12-19T05:43:58.807Z,59.08
2022-12-19T05:46:27.390Z,49.35
2022-12-19T05:48:55.449Z,41.90
2022-12-19T05:51:25.242Z,42.17
2022-12-19T05:53:52.948Z,36.03
2022-12-19T05:56:22.135Z,38.40
2022-12-19T05:58:51.140Z,43.33
2022-12-19T06:01:25.105Z,35.97
2022-12-19T06:03:54.287Z,37.03
2022-12-19T06:06:24.254Z,39.67
2022-12-19T06:08:54.502Z,36.47
2022-12-19T06:11:22.804Z,39.38
2022-12-19T06:13:53.585Z,35.60
2022-12-19T06:16:27.296Z,43.13
2022-12-19T06:19:01.237Z,48.55
2022-12-19T06:21:32.631Z,51.70
2022-12-19T06:24:04.466Z,73.13
2022-12-19T06:26:32.590Z,50.08
2022-12-19T06:29:00.766Z,56.70
2022-12-19T06:31:30.372Z,48.80
2022-12-19T06:33:58.617Z,44.95
2022-12-19T06:36:29.457Z,43.47
2022-12-19T06:39:03.161Z,38.08
2022-12-19T06:41:48.772Z,43.55
2022-12-19T06:44:18.156Z,36.05
2022-12-19T06:46:47.220Z,50.25
2022-12-19T06:49:15.267Z,44.90
2022-12-19T06:51:47.586Z,38.78
2022-12-19T06:54:19.031Z,36.97
2022-12-19T06:56:49.827Z,36.65
2022-12-19T06:59:18.203Z,37.33
2022-12-19T07:01:57.776Z,43.25
2022-12-19T07:04:29.513Z,40.63
2022-12-19T07:06:57.639Z,40.42
2022-12-19T07:09:26.756Z,65.72
2022-12-19T07:11:55.068Z,45.05
2022-12-19T07:14:22.918Z,38.05
2022-12-19T07:16:53.620Z,36.97
2022-12-19T07:19:21.559Z,31.88
2022-12-19T07:21:49.556Z,38.97
2022-12-19T07:24:17.397Z,42.38
2022-12-19T07:26:45.805Z,40.85
2022-12-19T07:29:14.587Z,36.95
2022-12-19T07:31:47.403Z,45.78
2022-12-19T07:34:24.334Z,64.97
2022-12-19T07:36:56.245Z,97.50
2022-12-19T07:39:27.404Z,35.90
2022-12-19T07:42:42.686Z,39.50
2022-12-19T07:45:29.821Z,35.70
2022-12-19T07:48:04.005Z,36.28
2022-12-19T07:50:36.479Z,52.33
2022-12-19T07:53:10.639Z,44.05
2022-12-19T07:55:51.973Z,43.67
2022-12-19T07:58:34.479Z,41.30
2022-12-19T08:01:11.597Z,42.88
2022-12-19T08:03:39.875Z,35.15
2022-12-19T08:06:12.106Z,60.72
2022-12-19T08:08:43.766Z,41.28
2022-12-19T08:11:33.384Z,50.47
2022-12-19T08:14:01.529Z,37.97
2022-12-19T08:16:29.587Z,45.20
2022-12-19T08:18:57.636Z,43.55
2022-12-19T08:21:28.985Z,40.90
2022-12-19T08:23:57.227Z,42.47
2022-12-19T08:26:26.125Z,42.92
2022-12-19T08:28:54.537Z,46.05
2022-12-19T08:31:24.911Z,41.22
2022-12-19T08:33:53.255Z,45.15
2022-12-19T08:36:27.137Z,40.22
2022-12-19T08:39:10.314Z,43.47
2022-12-19T08:41:45.811Z,40.72
2022-12-19T08:44:18.291Z,42.35
2022-12-19T08:46:50.283Z,39.63
2022-12-19T08:49:19.048Z,43.40
2022-12-19T08:51:52.693Z,46.38
2022-12-19T08:54:21.867Z,44.35
2022-12-19T08:56:49.459Z,48.80
2022-12-19T08:59:25.972Z,43.83
2022-12-19T09:02:00.303Z,41.97
2022-12-19T09:06:00.496Z,39.33
2022-12-19T09:07:16.586Z,41.42
2022-12-19T09:09:45.496Z,47.28
2022-12-19T09:12:14.057Z,43.50
2022-12-19T09:14:41.716Z,39.80
2022-12-19T09:17:09.864Z,44.28
2022-12-19T09:19:37.518Z,38.55
2022-12-19T09:22:05.980Z,51.08
2022-12-19T09:24:33.585Z,43.72
2022-12-19T09:27:02.839Z,39.40
2022-12-19T09:29:35.062Z,36.53
2022-12-19T09:32:03.224Z,45.17
2022-12-19T09:34:36.956Z,39.38
2022-12-19T09:37:06.384Z,35.22
2022-12-19T09:39:34.269Z,45.70
2022-12-19T09:42:15.567Z,41.10
2022-12-19T09:44:54.055Z,53.88
2022-12-19T09:47:24.756Z,43.50
2022-12-19T09:49:53.951Z,47.92
2022-12-19T09:52:26.902Z,38.28
2022-12-19T09:55:02.263Z,37.55
2022-12-19T09:57:36.674Z,44.95
2022-12-19T10:00:09.333Z,44.78
2022-12-19T10:02:41.797Z,45.58
2022-12-19T10:05:42.530Z,45.50
2022-12-19T10:08:09.711Z,52.13
2022-12-19T10:12:36.185Z,37.13
2022-12-19T10:13:53.088Z,39.35
2022-12-19T10:16:27.974Z,47.60
2022-12-19T10:18:57.351Z,63.65
2022-12-19T10:21:58.827Z,51.60
2022-12-19T10:24:35.117Z,44.28
2022-12-19T10:27:07.592Z,40.83
2022-12-19T10:29:52.740Z,36.70
2022-12-19T10:32:26.282Z,46.17
2022-12-19T10:34:55.054Z,45.28
2022-12-19T10:37:36.787Z,45.35
2022-12-19T10:40:20.011Z,41.92
2022-12-19T10:42:58.058Z,42.33
2022-12-19T10:45:32.143Z,55.60
2022-12-19T10:48:00.236Z,45.63
2022-12-19T10:50:30.589Z,42.97
2022-12-19T10:53:08.400Z,41.25
2022-12-19T10:55:42.566Z,45.70
2022-12-19T10:58:28.545Z,49.50
2022-12-19T11:01:12.755Z,46.75
2022-12-19T11:03:42.710Z,51.35
2022-12-19T11:06:41.456Z,37.60
2022-12-19T11:09:24.983Z,49.45
2022-12-19T11:17:21.023Z,43.58
2022-12-19T11:19:56.601Z,41.42
2022-12-19T11:25:38.180Z,44.80
2022-12-19T11:29:33.109Z,39.88
2022-12-19T11:29:40.287Z,41.15
2022-12-19T11:29:54.530Z,39.83
2022-12-19T11:30:42.812Z,44.60
2022-12-19T11:34:35.994Z,50.80
2022-12-19T11:37:13.148Z,59.40
2022-12-19T11:39:44.787Z,49.67
2022-12-19T11:42:16.579Z,37.22
2022-12-19T11:44:48.232Z,62.30
2022-12-19T11:47:23.280Z,95.70
2022-12-19T11:49:56.111Z,54.25
2022-12-19T11:53:02.979Z,55.07
2022-12-19T11:55:22.433Z,48.17
2022-12-19T11:57:49.993Z,46.50
2022-12-19T12:00:20.360Z,44.75
2022-12-19T12:03:24.657Z,41.72
2022-12-19T12:05:56.368Z,48.03
2022-12-19T12:10:10.196Z,39.17
2022-12-19T12:17:46.250Z,46.13
2022-12-19T12:26:19.084Z,35.88
2022-12-19T12:30:26.040Z,41.42
2022-12-19T12:31:09.512Z,40.25
2022-12-19T12:31:12.696Z,39.00
2022-12-19T12:31:59.019Z,42.28
2022-12-19T12:32:05.261Z,45.22
2022-12-19T12:35:54.320Z,40.63
2022-12-19T12:38:00.931Z,36.70
2022-12-19T12:38:24.775Z,48.17
2022-12-19T12:41:16.317Z,46.72
2022-12-19T12:44:07.604Z,46.15
2022-12-19T12:46:43.278Z,38.67
2022-12-19T12:49:24.854Z,48.97
2022-12-19T12:51:52.843Z,46.60
2022-12-19T12:54:21.132Z,55.50
2022-12-19T12:56:50.265Z,44.50
2022-12-19T12:59:23.946Z,49.53
2022-12-19T13:01:54.310Z,46.75
2022-12-19T13:04:32.036Z,48.22
2022-12-19T13:07:24.008Z,43.75
2022-12-19T13:09:57.515Z,50.13
2022-12-19T13:12:46.201Z,38.72
2022-12-19T13:15:40.939Z,41.95
2022-12-19T13:18:33.318Z,47.20
2022-12-19T13:21:02.378Z,53.15
2022-12-19T13:23:48.545Z,52.55
2022-12-19T13:26:49.398Z,41.00
2022-12-19T13:29:33.934Z,48.10
2022-12-19T13:32:15.916Z,39.78
2022-12-19T13:35:02.466Z,45.60
2022-12-19T13:40:01.199Z,49.95
2022-12-19T13:40:33.703Z,43.53
2022-12-19T13:43:29.990Z,40.55
2022-12-19T13:46:01.084Z,52.80
2022-12-19T13:49:00.303Z,47.40
2022-12-19T13:51:29.884Z,39.80
2022-12-19T13:54:03.276Z,42.13
2022-12-19T13:56:33.596Z,49.10
2022-12-19T13:59:05.113Z,39.30
2022-12-19T14:01:39.113Z,46.40
2022-12-19T14:04:08.809Z,43.57
2022-12-19T14:06:41.622Z,45.03
2022-12-19T14:11:24.303Z,41.10
2022-12-19T14:13:47.507Z,46.30
2022-12-19T14:15:13.250Z,43.28
2022-12-19T14:17:49.007Z,49.17
2022-12-19T14:22:02.017Z,50.78
2022-12-19T14:23:08.392Z,53.53
2022-12-19T14:28:14.416Z,39.90
2022-12-19T14:28:30.458Z,34.90
2022-12-19T14:31:00.759Z,41.92
2022-12-19T14:33:47.344Z,34.53
2022-12-19T14:36:26.292Z,34.15
2022-12-19T14:39:25.001Z,40.93
2022-12-19T14:42:03.956Z,55.42
2022-12-19T14:50:19.965Z,41.67
2022-12-19T14:54:01.421Z,57.47
2022-12-19T14:54:33.731Z,47.70
2022-12-19T14:54:41.626Z,50.78
2022-12-19T14:59:01.579Z,47.90
2022-12-19T15:01:31.805Z,44.65
2022-12-19T15:04:52.516Z,46.15
2022-12-19T15:07:08.389Z,50.33
2022-12-19T15:11:00.376Z,44.20
2022-12-19T15:14:55.131Z,42.58
2022-12-19T15:15:45.470Z,52.67
2022-12-19T15:18:22.361Z,51.70
2022-12-19T15:20:50.192Z,46.65
2022-12-19T15:23:22.430Z,45.47
2022-12-19T15:26:07.578Z,50.03
2022-12-19T15:28:39.930Z,58.75
2022-12-19T15:31:15.264Z,50.00
2022-12-19T15:34:06.746Z,47.38
2022-12-19T15:36:30.448Z,53.42
2022-12-19T15:38:59.294Z,44.55
2022-12-19T15:41:26.851Z,52.72
2022-12-19T15:44:04.083Z,46.00
2022-12-19T15:46:33.285Z,43.38
2022-12-19T15:49:00.967Z,49.72
2022-12-19T15:51:28.643Z,41.78
2022-12-19T15:54:04.162Z,41.17
2022-12-19T15:56:47.269Z,42.58
2022-12-19T15:59:24.142Z,44.90
2022-12-19T16:01:52.074Z,50.50
2022-12-19T16:04:20.238Z,55.25
2022-12-19T16:06:48.021Z,51.10
2022-12-19T16:09:21.064Z,52.47
2022-12-19T16:11:50.647Z,58.33
2022-12-19T16:14:18.497Z,45.38
2022-12-19T16:16:48.506Z,48.63
2022-12-19T16:19:25.170Z,43.08
2022-12-19T16:21:53.137Z,48.75
2022-12-19T16:24:21.355Z,48.92
2022-12-19T16:26:53.633Z,43.80
2022-12-19T16:29:22.299Z,41.13
2022-12-19T16:31:50.586Z,49.83
2022-12-19T16:34:21.421Z,44.78
2022-12-19T16:36:48.984Z,43.30
2022-12-19T16:39:16.949Z,43.40
2022-12-19T16:41:45.818Z,46.13
2022-12-19T16:44:19.524Z,44.30
2022-12-19T16:46:50.940Z,47.75
2022-12-19T16:49:22.645Z,42.25
2022-12-19T16:51:50.614Z,51.40
2022-12-19T16:54:18.600Z,43.45
2022-12-19T16:56:49.052Z,45.15
2022-12-19T16:59:19.709Z,48.25
2022-12-19T17:01:48.104Z,51.50
2022-12-19T17:04:17.378Z,47.55
2022-12-19T17:06:45.090Z,47.50
2022-12-19T17:09:15.608Z,38.78
2022-12-19T17:11:46.350Z,47.63
2022-12-19T17:14:18.770Z,43.75
2022-12-19T17:16:46.839Z,61.92
2022-12-19T17:19:21.411Z,44.53
2022-12-19T17:21:49.823Z,53.22
2022-12-19T17:24:17.647Z,52.17
2022-12-19T17:26:45.889Z,49.90
2022-12-19T17:29:15.635Z,48.20
2022-12-19T17:31:44.799Z,49.90
2022-12-19T17:34:18.442Z,59.33
2022-12-19T17:36:46.071Z,50.83
2022-12-19T17:39:21.268Z,55.17
2022-12-19T17:41:49.135Z,52.60
2022-12-19T17:44:16.685Z,46.88
2022-12-19T17:46:47.227Z,52.60
2022-12-19T17:49:17.149Z,50.60
2022-12-19T17:51:48.220Z,60.08
2022-12-19T17:54:15.853Z,56.22
2022-12-19T17:56:43.930Z,57.25
2022-12-19T17:59:11.885Z,53.42
2022-12-19T18:01:41.564Z,47.67
2022-12-19T18:04:14.882Z,47.58
2022-12-19T18:06:43.053Z,51.08
2022-12-19T18:09:18.840Z,65.95
2022-12-19T18:11:46.560Z,57.33
2022-12-19T18:14:14.236Z,58.88
2022-12-19T18:16:42.125Z,55.10
2022-12-19T18:19:17.263Z,61.05
2022-12-19T18:21:45.119Z,54.38
2022-12-19T18:24:14.694Z,56.25
2022-12-19T18:26:42.358Z,59.42
2022-12-19T18:29:09.871Z,60.67
2022-12-19T18:31:37.412Z,55.95
2022-12-19T18:34:08.012Z,53.75
2022-12-19T18:36:41.014Z,54.60
2022-12-19T18:39:19.452Z,47.83
2022-12-19T18:41:47.234Z,51.65
2022-12-19T18:44:14.750Z,56.50
2022-12-19T18:46:42.466Z,51.75
2022-12-19T18:49:13.439Z,46.67
2022-12-19T18:51:42.633Z,54.17
2022-12-19T18:54:15.248Z,46.80
2022-12-19T18:56:42.974Z,52.42
2022-12-19T18:59:11.049Z,52.30
2022-12-19T19:01:41.823Z,54.35
2022-12-19T19:04:11.990Z,44.10
2022-12-19T19:06:43.496Z,55.17
2022-12-19T19:09:19.962Z,55.75
2022-12-19T19:11:47.601Z,49.67
2022-12-19T19:14:15.551Z,51.53
2022-12-19T19:16:43.556Z,48.20
2022-12-19T19:19:13.295Z,59.33
2022-12-19T19:21:41.767Z,59.97
2022-12-19T19:24:12.333Z,61.00
2022-12-19T19:27:20.440Z,46.85
2022-12-19T19:29:47.457Z,53.42
2022-12-19T19:32:15.279Z,60.53
2022-12-19T19:34:44.486Z,60.35
2022-12-19T19:37:14.824Z,50.85
2022-12-19T19:39:42.986Z,49.60
2022-12-19T19:42:13.778Z,54.70
2022-12-19T19:44:43.382Z,47.50
2022-12-19T19:47:11.185Z,47.80
2022-12-19T19:49:39.005Z,53.42
2022-12-19T19:52:08.255Z,50.88
2022-12-19T19:54:38.785Z,50.92
2022-12-19T19:57:10.054Z,45.03
2022-12-19T19:59:40.560Z,47.73
2022-12-19T20:02:19.176Z,51.05
2022-12-19T20:04:47.381Z,54.42
2022-12-19T20:07:17.365Z,55.33
2022-12-19T20:09:46.234Z,50.75
2022-12-19T20:12:14.113Z,59.35
2022-12-19T20:14:45.489Z,47.10
2022-12-19T20:17:36.715Z,49.50
2022-12-19T20:20:03.017Z,44.55
2022-12-19T20:22:32.309Z,50.60
2022-12-19T20:25:10.842Z,47.03
2022-12-19T20:27:40.098Z,49.67
2022-12-19T20:30:12.563Z,49.42
2022-12-19T20:32:40.619Z,46.42
2022-12-19T20:35:14.261Z,51.33
2022-12-19T20:37:42.815Z,52.40
2022-12-19T20:40:15.513Z,50.80
2022-12-19T20:42:52.952Z,44.30
2022-12-19T20:45:28.311Z,47.38
2022-12-19T20:48:02.483Z,48.20
2022-12-19T20:50:39.764Z,51.38
2022-12-19T20:53:14.971Z,47.53
2022-12-19T20:56:13.225Z,51.80
2022-12-19T20:58:44.840Z,45.97
2022-12-19T21:01:34.275Z,51.28
2022-12-19T21:04:11.011Z,51.20
2022-12-19T21:06:42.224Z,44.53
2022-12-19T21:09:12.320Z,49.50
2022-12-19T21:11:42.665Z,51.88
2022-12-19T21:14:16.639Z,52.65
2022-12-19T21:17:48.329Z,44.88
2022-12-19T21:19:49.556Z,55.08
2022-12-19T21:22:18.411Z,50.27
2022-12-19T21:24:48.314Z,54.38
2022-12-19T21:27:16.390Z,46.97
2022-12-19T21:29:50.657Z,44.30
2022-12-19T21:32:51.431Z,50.90
2022-12-19T21:35:22.363Z,50.38
2022-12-19T21:37:52.161Z,51.08
2022-12-19T21:40:23.162Z,48.53
2022-12-19T21:42:52.127Z,50.75
2022-12-19T21:45:24.140Z,48.88
2022-12-19T21:47:54.815Z,52.78
2022-12-19T21:50:22.823Z,49.88
2022-12-19T21:52:55.710Z,49.72
2022-12-19T21:55:27.164Z,51.50
2022-12-19T21:57:59.442Z,49.75
2022-12-19T22:00:28.399Z,45.40
2022-12-19T22:03:13.804Z,53.05
2022-12-19T22:05:44.548Z,47.45
2022-12-19T22:08:14.524Z,43.63
2022-12-19T22:10:42.482Z,45.85
2022-12-19T22:13:10.390Z,57.72
2022-12-19T22:15:38.227Z,45.75
2022-12-19T22:18:07.574Z,48.60
2022-12-19T22:20:42.108Z,49.20
2022-12-19T22:23:13.242Z,49.33
2022-12-19T22:25:45.877Z,49.20
2022-12-19T22:28:16.956Z,51.78
2022-12-19T22:30:47.293Z,49.08
2022-12-19T22:33:16.703Z,47.55
2022-12-19T22:35:46.721Z,46.97
2022-12-19T22:38:14.739Z,44.63
2022-12-19T22:40:42.583Z,47.65
2022-12-19T22:47:34.191Z,52.13
2022-12-19T23:02:45.560Z,46.97
2022-12-19T23:05:11.188Z,45.28
2022-12-19T23:08:59.912Z,57.88
2022-12-19T23:11:54.951Z,43.67
2022-12-19T23:17:57.816Z,47.90
2022-12-19T23:21:48.822Z,40.05
2022-12-19T23:29:38.728Z,43.08
2022-12-19T23:31:03.554Z,42.85
2022-12-19T23:34:13.804Z,40.30
2022-12-19T23:37:11.840Z,41.35
2022-12-19T23:39:52.638Z,34.65
2022-12-19T23:42:24.663Z,47.03
2022-12-19T23:44:56.241Z,36.20
2022-12-19T23:47:33.020Z,42.90
2022-12-19T23:50:06.555Z,38.05
2022-12-19T23:52:41.741Z,40.22
2022-12-19T23:55:13.952Z,44.58
2022-12-19T23:57:43.613Z,39.67
